Time;durP1;ratioP1;P1;durP2;ratioP2;P2;SDS_P1;SDS_P2;PMS_P1;PMS_P2;Temp;Humidity;BMP_temperature;BMP_pressure;BME280_temperature;BME280_humidity;BME280_pressure;Samples;Min_cycle;Max_cycle;Signal;HPM_P1;HPM_P2
2021/12/12 00:00:30;;;;;;;12.60;6.22;;;;;;;-0.03;82.20;100116.28;5037229;28;20045;-69
2021/12/12 00:03:05;;;;;;;9.32;5.65;;;;;;;0.12;82.21;100109.78;5037147;28;20276;-68
2021/12/12 00:05:42;;;;;;;10.98;5.95;;;;;;;0.24;81.93;100120.34;5036969;28;20327;-69
2021/12/12 00:08:14;;;;;;;11.65;5.80;;;;;;;0.24;81.98;100104.06;5031006;28;20067;-69
2021/12/12 00:10:49;;;;;;;10.50;5.53;;;;;;;0.10;81.68;100096.03;5021004;28;20440;-69
2021/12/12 00:13:25;;;;;;;12.02;5.57;;;;;;;-0.02;81.92;100089.78;5028033;28;20081;-69
2021/12/12 00:15:56;;;;;;;9.63;4.75;;;;;;;-0.06;81.01;100080.28;5017221;28;20065;-69
2021/12/12 00:18:27;;;;;;;11.25;4.93;;;;;;;-0.09;80.94;100082.78;5019802;28;20045;-69
2021/12/12 00:21:00;;;;;;;8.98;4.95;;;;;;;-0.07;80.61;100083.69;5026128;28;20108;-68
2021/12/12 00:23:32;;;;;;;11.57;6.13;;;;;;;0.03;81.26;100063.34;5017166;28;20240;-68
2021/12/12 00:26:03;;;;;;;11.30;6.43;;;;;;;0.39;80.52;100077.00;5033912;28;20077;-69
2021/12/12 00:28:36;;;;;;;11.60;5.80;;;;;;;0.72;80.26;100082.81;5036613;28;20042;-68
2021/12/12 00:31:10;;;;;;;9.93;5.68;;;;;;;0.85;78.91;100070.25;5034164;28;20291;-69
2021/12/12 00:33:46;;;;;;;9.95;6.15;;;;;;;1.02;78.42;100068.00;5033850;28;20439;-70
2021/12/12 00:36:19;;;;;;;8.25;5.57;;;;;;;0.84;77.91;100022.19;5036018;28;20037;-68
2021/12/12 00:38:53;;;;;;;12.25;4.88;;;;;;;1.16;77.31;100065.69;5026880;28;20121;-70
2021/12/12 00:41:32;;;;;;;10.48;5.45;;;;;;;1.16;76.62;100065.69;5030127;28;20054;-70
2021/12/12 00:44:05;;;;;;;9.65;5.30;;;;;;;1.24;76.11;100068.41;5033060;28;20613;-69
2021/12/12 00:46:36;;;;;;;9.57;5.57;;;;;;;1.23;75.41;100052.09;5020536;28;20105;-69
2021/12/12 00:49:08;;;;;;;9.73;6.05;;;;;;;1.29;75.58;100072.78;5020449;28;20049;-69
2021/12/12 00:51:42;;;;;;;14.38;6.15;;;;;;;1.35;75.26;100055.69;5025019;28;20049;-68
2021/12/12 00:54:14;;;;;;;11.73;6.03;;;;;;;1.49;74.99;100069.69;5025696;28;20056;-70
2021/12/12 00:56:47;;;;;;;14.70;7.07;;;;;;;1.50;74.37;100076.59;5032110;28;20073;-69
2021/12/12 00:59:19;;;;;;;10.95;5.68;;;;;;;1.56;74.79;100081.84;5030545;28;20109;-69
2021/12/12 01:01:52;;;;;;;9.25;5.65;;;;;;;1.58;75.04;100075.00;5032324;28;20069;-69
2021/12/12 01:04:26;;;;;;;11.02;5.90;;;;;;;1.70;74.56;100080.38;5036403;28;20073;-69
2021/12/12 01:07:00;;;;;;;11.63;5.97;;;;;;;1.85;73.91;100074.59;5037297;28;20053;-68
2021/12/12 01:09:33;;;;;;;8.38;5.60;;;;;;;2.05;74.14;100061.16;5039640;28;20100;-70
2021/12/12 01:12:10;;;;;;;11.38;6.22;;;;;;;2.13;72.64;100050.09;5037178;28;20069;-69
2021/12/12 01:14:45;;;;;;;11.00;6.30;;;;;;;2.14;71.93;100044.09;5037313;28;20292;-69
2021/12/12 01:17:18;;;;;;;8.98;5.80;;;;;;;2.11;70.94;100054.34;5035762;28;20387;-68
2021/12/12 01:19:54;;;;;;;10.57;6.30;;;;;;;2.27;71.31;100050.31;5039525;28;20299;-69
2021/12/12 01:22:30;;;;;;;9.60;5.60;;;;;;;2.49;71.66;100028.22;5039388;28;20055;-71
2021/12/12 01:25:06;;;;;;;8.27;5.25;;;;;;;2.52;70.54;100028.28;5039515;28;20050;-71
2021/12/12 01:27:36;;;;;;;7.78;4.97;;;;;;;2.48;69.78;100021.34;5036911;28;20045;-71
2021/12/12 01:30:09;;;;;;;9.00;4.88;;;;;;;2.46;69.79;100012.72;5039217;28;20080;-71
2021/12/12 01:32:40;;;;;;;9.77;5.07;;;;;;;2.45;69.77;100021.31;5037241;28;20047;-71
2021/12/12 01:35:15;;;;;;;9.88;4.70;;;;;;;2.48;69.59;100021.34;5039167;28;20041;-71
2021/12/12 01:38:51;;;;;;;8.93;4.85;;;;;;;2.49;69.11;100012.75;5039110;28;20053;-70
2021/12/12 01:40:46;;;;;;;8.95;4.28;;;;;;;2.42;68.03;100005.81;5037738;28;20053;-70
2021/12/12 01:43:23;;;;;;;5.85;4.15;;;;;;;2.37;67.84;99984.22;5039285;28;20232;-69
2021/12/12 01:45:57;;;;;;;6.93;4.40;;;;;;;2.33;66.97;99985.06;5029567;28;20121;-69
2021/12/12 01:48:33;;;;;;;6.55;4.00;;;;;;;2.31;66.66;99976.44;5034708;28;20139;-69
2021/12/12 01:51:09;;;;;;;8.15;3.83;;;;;;;2.41;66.62;99973.13;5036715;28;20056;-72
2021/12/12 01:53:45;;;;;;;6.85;3.92;;;;;;;2.37;66.84;99961.03;5038835;28;20049;-71
2021/12/12 01:56:19;;;;;;;12.38;4.50;;;;;;;2.30;66.97;99929.16;5039056;28;20046;-71
2021/12/12 01:58:54;;;;;;;11.25;5.10;;;;;;;2.49;67.16;99950.84;5038889;28;20088;-72
2021/12/12 02:01:30;;;;;;;8.77;5.07;;;;;;;2.54;66.93;99941.44;5038946;28;20328;-71
2021/12/12 02:04:04;;;;;;;8.65;4.93;;;;;;;2.58;66.92;99930.34;5033769;28;20057;-70
2021/12/12 02:06:35;;;;;;;8.93;4.80;;;;;;;2.71;66.63;99933.03;5035306;28;20053;-71
2021/12/12 02:09:10;;;;;;;13.15;5.30;;;;;;;2.74;66.45;99920.16;5035178;28;20096;-71
2021/12/12 02:11:44;;;;;;;14.82;7.57;;;;;;;2.79;66.70;99918.50;5034940;28;20052;-70
2021/12/12 02:14:18;;;;;;;16.45;7.47;;;;;;;2.73;66.38;99902.97;5034866;28;20176;-71
2021/12/12 02:16:52;;;;;;;10.20;5.38;;;;;;;2.71;66.71;99894.34;5034989;28;20065;-71
2021/12/12 02:19:31;;;;;;;8.18;4.80;;;;;;;2.64;66.87;99884.81;5034899;28;20237;-70
2021/12/12 02:22:08;;;;;;;8.20;5.03;;;;;;;2.52;67.53;99863.22;5034875;28;20042;-71
2021/12/12 02:35:54;;;;;;;9.90;4.97;;;;;;;2.48;68.05;99866.59;5033034;28;20045;-71
2021/12/12 02:38:29;;;;;;;21.65;6.43;;;;;;;2.51;68.54;99864.06;5033959;28;20056;-70
2021/12/12 02:41:05;;;;;;;12.48;6.38;;;;;;;2.43;69.03;99857.97;5034650;28;20367;-70
2021/12/12 02:43:40;;;;;;;14.23;6.30;;;;;;;2.29;69.34;99844.06;5034816;28;20049;-70
2021/12/12 02:46:16;;;;;;;26.95;7.18;;;;;;;2.14;69.72;99840.47;5034350;28;20230;-71
2021/12/12 02:48:52;;;;;;;12.27;6.72;;;;;;;2.00;70.69;99831.72;5034276;28;20049;-70
2021/12/12 02:51:22;;;;;;;12.55;6.18;;;;;;;1.94;69.96;99836.81;5034591;28;20477;-71
2021/12/12 02:53:57;;;;;;;16.52;7.13;;;;;;;1.81;70.10;99835.78;5034499;28;20221;-71
2021/12/12 02:56:33;;;;;;;14.10;5.93;;;;;;;1.81;70.34;99845.25;5034434;28;20060;-70
2021/12/12 02:59:06;;;;;;;21.70;8.95;;;;;;;1.66;70.94;99826.16;5033451;28;20129;-70
2021/12/12 03:01:45;;;;;;;21.42;9.35;;;;;;;1.65;70.64;99819.28;5034352;28;20067;-71
2021/12/12 03:04:16;;;;;;;16.67;8.32;;;;;;;1.68;71.04;99814.19;5033142;28;20065;-71
2021/12/12 03:06:47;;;;;;;20.23;8.20;;;;;;;1.62;71.51;99806.38;5033913;28;20364;-70
2021/12/12 03:09:22;;;;;;;22.63;9.13;;;;;;;1.66;71.75;99804.69;5033821;28;20053;-71
2021/12/12 03:11:57;;;;;;;19.00;10.60;;;;;;;1.64;71.66;99776.34;5033943;28;20049;-70
2021/12/12 03:14:32;;;;;;;23.65;11.02;;;;;;;1.72;72.19;99771.28;5033806;28;20049;-71
2021/12/12 03:17:04;;;;;;;17.33;10.40;;;;;;;1.79;72.55;99761.91;5034161;28;20061;-71
2021/12/12 03:19:35;;;;;;;14.63;8.23;;;;;;;1.82;72.57;99764.53;5034368;28;20050;-71
2021/12/12 03:22:08;;;;;;;15.70;8.80;;;;;;;1.75;72.26;99755.00;5033863;28;20059;-70
2021/12/12 03:24:39;;;;;;;16.42;8.70;;;;;;;1.77;72.20;99750.72;5033948;28;20048;-71
2021/12/12 03:27:12;;;;;;;15.35;9.13;;;;;;;1.80;72.16;99741.34;5034071;28;20076;-70
2021/12/12 03:29:46;;;;;;;14.93;8.30;;;;;;;1.79;71.78;99733.59;5033652;28;20350;-71
2021/12/12 03:32:19;;;;;;;15.05;8.73;;;;;;;1.76;72.05;99736.13;5033448;28;20060;-71
2021/12/12 03:34:52;;;;;;;22.42;10.25;;;;;;;1.50;72.16;99705.81;5033748;28;20049;-71
2021/12/12 03:37:25;;;;;;;24.35;13.50;;;;;;;1.70;72.52;99730.06;5033669;28;20102;-71
2021/12/12 03:40:02;;;;;;;34.25;15.65;;;;;;;1.58;72.65;99709.34;5033530;28;20244;-71
2021/12/12 03:42:37;;;;;;;26.52;12.48;;;;;;;1.64;73.00;99714.53;5033432;28;20049;-71
2021/12/12 03:45:09;;;;;;;31.33;13.07;;;;;;;1.61;73.20;99719.66;5032443;28;20109;-71
2021/12/12 03:47:42;;;;;;;23.02;11.57;;;;;;;1.50;73.51;99710.97;5032133;28;20049;-70
2021/12/12 03:50:20;;;;;;;23.70;12.90;;;;;;;1.46;73.98;99709.19;5033410;28;20724;-70
2021/12/12 03:52:52;;;;;;;27.20;13.50;;;;;;;1.38;74.05;99695.38;5033742;28;20057;-71
2021/12/12 03:55:23;;;;;;;22.48;12.35;;;;;;;1.35;74.64;99700.47;5033487;28;20052;-70
2021/12/12 03:57:56;;;;;;;24.90;13.00;;;;;;;1.41;74.73;99701.41;5033641;28;20073;-71
2021/12/12 04:00:31;;;;;;;22.95;15.73;;;;;;;1.45;75.27;99692.03;5033394;28;20120;-71
2021/12/12 04:03:02;;;;;;;18.40;10.57;;;;;;;1.43;75.36;99673.13;5033398;28;20042;-70
2021/12/12 04:05:33;;;;;;;18.30;10.40;;;;;;;1.57;75.26;99686.97;5032616;28;20076;-71
2021/12/12 04:08:05;;;;;;;18.67;10.50;;;;;;;1.53;75.25;99668.94;5035361;28;20120;-70
2021/12/12 04:10:36;;;;;;;19.42;10.20;;;;;;;1.50;74.82;99662.06;5037501;28;20045;-71
2021/12/12 04:13:08;;;;;;;17.65;10.02;;;;;;;1.45;74.56;99650.84;5037632;28;20254;-71
2021/12/12 04:15:39;;;;;;;21.98;10.93;;;;;;;1.38;74.77;99628.44;5037488;28;20050;-71
2021/12/12 04:18:10;;;;;;;19.65;10.73;;;;;;;1.45;74.92;99630.25;5037295;28;20045;-71
2021/12/12 04:20:41;;;;;;;18.23;11.27;;;;;;;1.57;74.88;99625.19;5037387;28;20049;-71
2021/12/12 04:23:17;;;;;;;18.48;10.00;;;;;;;1.67;74.73;99621.88;5036951;28;20375;-71
2021/12/12 04:25:48;;;;;;;17.70;9.90;;;;;;;1.71;74.53;99628.75;5037218;28;20096;-71
2021/12/12 04:28:21;;;;;;;17.83;9.45;;;;;;;1.66;74.35;99614.97;5034966;28;20293;-70
2021/12/12 04:30:51;;;;;;;14.68;8.48;;;;;;;1.63;74.46;99620.13;5036736;28;20586;-71
2021/12/12 04:33:22;;;;;;;26.42;10.43;;;;;;;1.62;74.32;99615.81;5037139;28;20045;-71
2021/12/12 04:35:53;;;;;;;34.03;12.23;;;;;;;1.46;74.20;99590.75;5037124;28;20042;-70
2021/12/12 04:38:25;;;;;;;32.83;12.07;;;;;;;1.79;75.66;99589.34;5036383;28;20046;-70
2021/12/12 04:40:56;;;;;;;35.90;12.82;;;;;;;1.85;75.34;99579.97;5036732;28;20058;-71
2021/12/12 04:43:28;;;;;;;38.90;12.98;;;;;;;2.31;76.99;99584.56;5036822;28;20088;-71
2021/12/12 04:46:09;;;;;;;36.33;13.05;;;;;;;3.07;78.50;99578.00;5036914;28;20113;-70
2021/12/12 04:51:43;;;;;;;31.63;11.38;;;;;;;4.10;76.48;99540.19;5036816;28;20274;-70
2021/12/12 04:54:23;;;;;;;28.80;13.00;;;;;;;3.90;74.65;99542.81;5036516;28;20056;-70
2021/12/12 04:56:57;;;;;;;21.95;11.35;;;;;;;4.15;74.78;99533.28;5036405;28;20363;-71
2021/12/12 04:59:37;;;;;;;26.63;11.50;;;;;;;3.75;71.80;99533.34;5036548;28;20054;-70
2021/12/12 05:02:15;;;;;;;17.45;10.40;;;;;;;3.08;71.18;99528.13;5036608;28;20057;-70
2021/12/12 05:04:53;;;;;;;24.27;11.20;;;;;;;2.52;71.76;99502.16;5036018;28;20217;-70
2021/12/12 05:07:32;;;;;;;22.52;12.23;;;;;;;2.50;73.05;99516.78;5036225;28;20055;-70
2021/12/12 05:10:08;;;;;;;23.23;11.40;;;;;;;2.50;73.86;99506.44;5035389;28;20050;-70
2021/12/12 05:12:46;;;;;;;19.23;11.00;;;;;;;2.62;74.11;99512.50;5035897;28;20065;-70
2021/12/12 05:15:22;;;;;;;20.77;11.90;;;;;;;2.59;74.21;99503.88;5035767;28;20272;-71
2021/12/12 05:17:56;;;;;;;28.58;17.42;;;;;;;2.68;74.44;99502.22;5035634;28;20056;-71
2021/12/12 05:20:31;;;;;;;42.85;24.30;;;;;;;2.76;75.14;99495.34;5034518;28;20196;-71
2021/12/12 05:23:06;;;;;;;38.85;24.85;;;;;;;2.75;75.18;99497.09;5035766;28;20095;-71
2021/12/12 05:25:44;;;;;;;27.80;17.23;;;;;;;2.73;75.55;99478.16;5035981;28;20287;-71
2021/12/12 05:28:18;;;;;;;30.55;17.90;;;;;;;2.83;75.67;99491.09;5035850;28;20555;-70
2021/12/12 05:30:51;;;;;;;30.25;16.73;;;;;;;2.74;75.83;99489.31;5034573;28;20057;-71
2021/12/12 05:33:23;;;;;;;38.95;20.13;;;;;;;2.69;75.52;99488.44;5035231;28;20041;-71
2021/12/12 05:35:54;;;;;;;57.38;29.30;;;;;;;2.58;75.96;99481.53;5035897;28;20049;-70
2021/12/12 05:38:26;;;;;;;65.68;33.10;;;;;;;2.56;76.36;99483.25;5035628;28;20283;-70
2021/12/12 05:40:58;;;;;;;45.45;25.52;;;;;;;2.46;76.45;99465.16;5035543;28;20068;-71
2021/12/12 05:43:30;;;;;;;48.83;23.88;;;;;;;2.32;75.76;99467.69;5035107;28;20057;-70
2021/12/12 05:46:02;;;;;;;35.25;18.80;;;;;;;1.90;75.34;99459.75;5035783;28;20355;-70
2021/12/12 05:48:34;;;;;;;34.17;17.42;;;;;;;1.56;75.99;99458.69;5035592;28;20087;-70
2021/12/12 05:51:04;;;;;;;35.45;18.75;;;;;;;1.49;77.55;99451.75;5035431;28;20087;-70
2021/12/12 05:53:35;;;;;;;35.35;20.00;;;;;;;1.64;77.77;99454.44;5035464;28;20055;-70
2021/12/12 05:56:08;;;;;;;33.70;19.63;;;;;;;1.62;77.73;99448.44;5035563;28;20099;-71
2021/12/12 05:58:39;;;;;;;33.53;19.35;;;;;;;1.91;78.83;99450.31;5035575;28;20051;-70
2021/12/12 06:01:13;;;;;;;37.08;20.60;;;;;;;1.96;78.60;99443.47;5035812;28;20107;-70
2021/12/12 06:03:46;;;;;;;39.92;24.02;;;;;;;1.92;77.67;99441.72;5034381;28;20062;-70
2021/12/12 06:06:20;;;;;;;44.38;24.35;;;;;;;1.87;77.72;99444.31;5035446;28;20108;-71
2021/12/12 06:08:51;;;;;;;41.28;25.70;;;;;;;2.09;78.84;99440.09;5035294;28;20340;-71
2021/12/12 06:11:25;;;;;;;52.70;25.35;;;;;;;2.24;78.16;99430.72;5034896;28;20095;-70
2021/12/12 06:13:56;;;;;;;44.47;24.67;;;;;;;1.79;76.90;99409.88;5035107;28;20057;-70
2021/12/12 06:16:31;;;;;;;40.30;23.52;;;;;;;1.41;76.85;99401.94;5035381;28;20056;-71
2021/12/12 06:19:07;;;;;;;42.25;24.25;;;;;;;1.25;77.74;99394.13;5035199;28;20049;-70
2021/12/12 06:21:38;;;;;;;33.60;18.90;;;;;;;1.15;77.99;99389.75;5035136;28;20060;-70
2021/12/12 06:24:09;;;;;;;32.25;17.05;;;;;;;0.90;78.24;99380.09;5034083;28;20344;-71
2021/12/12 06:26:42;;;;;;;28.48;16.70;;;;;;;0.68;78.94;99367.06;5033610;28;20077;-71
2021/12/12 06:29:12;;;;;;;31.17;18.70;;;;;;;0.41;79.66;99329.97;5034952;28;20041;-71
2021/12/12 06:31:47;;;;;;;33.38;17.85;;;;;;;0.37;79.96;99335.06;5034474;28;20453;-71
2021/12/12 06:34:19;;;;;;;51.00;21.02;;;;;;;0.36;80.49;99339.34;5034763;28;20047;-71
2021/12/12 06:36:50;;;;;;;51.20;21.40;;;;;;;0.40;80.82;99330.84;5034558;28;20050;-71
2021/12/12 06:39:23;;;;;;;40.33;17.60;;;;;;;0.42;80.84;99318.88;5034409;28;20053;-71
2021/12/12 06:41:55;;;;;;;44.85;21.20;;;;;;;0.50;81.21;99305.19;5034641;28;20095;-72
2021/12/12 06:44:26;;;;;;;64.65;24.40;;;;;;;0.59;81.15;99310.41;5034590;28;20045;-71
2021/12/12 06:46:59;;;;;;;60.15;24.70;;;;;;;0.47;80.68;99294.88;5034349;28;20079;-71
2021/12/12 06:49:30;;;;;;;74.93;28.77;;;;;;;0.06;80.76;99246.56;5034184;28;20660;-73
2021/12/12 06:52:03;;;;;;;55.55;23.58;;;;;;;0.15;81.38;99270.63;5034033;28;20049;-72
2021/12/12 06:54:34;;;;;;;58.85;23.83;;;;;;;0.28;81.96;99258.75;5033517;28;20108;-71
2021/12/12 06:57:08;;;;;;;43.22;21.17;;;;;;;0.53;82.37;99264.13;5033635;28;20382;-72
2021/12/12 06:59:40;;;;;;;38.42;20.98;;;;;;;0.62;82.19;99243.59;5033948;28;20053;-72
2021/12/12 07:02:13;;;;;;;43.97;21.92;;;;;;;0.91;81.92;99232.66;5034227;28;20057;-70
2021/12/12 07:04:45;;;;;;;38.30;20.48;;;;;;;1.52;81.85;99240.66;5033442;28;20057;-70
2021/12/12 07:07:18;;;;;;;20.63;13.20;;;;;;;1.71;80.18;99227.00;5034143;28;20113;-71
2021/12/12 07:09:51;;;;;;;26.00;13.23;;;;;;;1.32;79.34;99216.56;5032351;28;20072;-72
2021/12/12 07:12:23;;;;;;;31.90;15.50;;;;;;;1.39;80.25;99202.88;5033993;28;20107;-72
2021/12/12 07:14:56;;;;;;;26.92;14.07;;;;;;;1.56;78.62;99201.22;5033093;28;20042;-72
2021/12/12 07:17:28;;;;;;;18.63;10.30;;;;;;;1.53;78.28;99188.34;5033306;28;20053;-71
2021/12/12 07:19:59;;;;;;;47.20;21.45;;;;;;;1.44;76.42;99180.56;5033679;28;20095;-70
2021/12/12 07:22:30;;;;;;;40.88;17.17;;;;;;;1.21;77.11;99186.50;5034032;28;20057;-71
2021/12/12 07:25:02;;;;;;;67.00;24.27;;;;;;;1.17;77.54;99182.19;5034095;28;20097;-71
2021/12/12 07:27:33;;;;;;;30.25;14.80;;;;;;;0.96;77.40;99184.69;5033861;28;20209;-70
2021/12/12 07:30:05;;;;;;;33.60;15.93;;;;;;;0.94;78.91;99178.66;5033840;28;20049;-73
2021/12/12 07:32:39;;;;;;;27.08;14.50;;;;;;;1.10;79.17;99170.19;5033710;28;20600;-72
2021/12/12 07:35:11;;;;;;;29.00;13.85;;;;;;;0.90;79.61;99170.09;5033979;28;20080;-71
2021/12/12 07:37:43;;;;;;;28.45;14.65;;;;;;;0.78;80.23;99137.44;5034030;28;20041;-70
2021/12/12 07:40:18;;;;;;;26.58;14.82;;;;;;;0.92;80.16;99149.50;5033826;28;20088;-71
2021/12/12 07:42:51;;;;;;;22.45;13.23;;;;;;;0.65;80.20;99148.53;5032889;28;20059;-70
2021/12/12 07:45:23;;;;;;;15.88;7.20;;;;;;;0.69;81.07;99144.25;5033646;28;20049;-70
2021/12/12 07:47:56;;;;;;;12.73;7.45;;;;;;;0.82;80.32;99139.19;5033725;28;20116;-69
2021/12/12 07:50:30;;;;;;;8.70;4.22;;;;;;;1.03;80.42;99127.25;5033546;28;20100;-70
2021/12/12 07:53:01;;;;;;;4.03;2.83;;;;;;;1.23;79.23;99115.31;5033252;28;20057;-70
2021/12/12 07:55:33;;;;;;;18.58;10.32;;;;;;;1.12;78.20;99127.28;5033575;28;20057;-71
2021/12/12 07:58:08;;;;;;;5.90;3.70;;;;;;;1.18;78.11;99111.88;5033414;28;20156;-71
2021/12/12 08:00:39;;;;;;;6.22;3.55;;;;;;;1.34;78.45;99106.75;5032939;28;20073;-70
2021/12/12 08:03:13;;;;;;;9.45;5.82;;;;;;;1.34;77.58;99091.31;5033590;28;20291;-70
2021/12/12 08:05:45;;;;;;;2.47;2.00;;;;;;;1.48;76.41;99105.09;5033723;28;20053;-70
2021/12/12 08:08:17;;;;;;;15.73;9.77;;;;;;;1.18;77.18;99104.16;5033556;28;20232;-71
2021/12/12 08:10:50;;;;;;;15.15;8.48;;;;;;;0.75;77.33;99111.72;5033692;28;20118;-70
2021/12/12 08:13:21;;;;;;;10.80;5.10;;;;;;;0.77;78.34;99099.69;5032966;28;20072;-70
2021/12/12 08:15:53;;;;;;;5.00;2.78;;;;;;;0.79;75.98;99098.00;5033339;28;20050;-71
2021/12/12 08:18:25;;;;;;;4.53;2.53;;;;;;;0.80;76.45;99079.16;5033571;28;20049;-70
2021/12/12 08:20:58;;;;;;;18.48;6.88;;;;;;;0.75;76.42;99065.44;5032454;28;20048;-71
2021/12/12 08:23:29;;;;;;;6.15;3.10;;;;;;;0.84;76.58;99075.75;5031447;28;20125;-71
2021/12/12 08:26:02;;;;;;;5.07;3.05;;;;;;;0.75;76.60;99065.44;5033428;28;20045;-71
2021/12/12 08:28:33;;;;;;;4.80;2.67;;;;;;;0.70;76.92;99046.56;5033577;28;20319;-69
2021/12/12 08:31:04;;;;;;;3.15;2.47;;;;;;;0.86;77.27;99047.47;5033204;28;20351;-71
2021/12/12 08:33:37;;;;;;;2.97;2.20;;;;;;;1.06;77.68;99030.38;5033301;28;20053;-72
2021/12/12 08:36:08;;;;;;;5.28;2.55;;;;;;;1.57;78.06;99027.84;5033346;28;20108;-71
2021/12/12 08:38:39;;;;;;;16.38;8.13;;;;;;;1.61;76.08;99011.53;5033255;28;20882;-70
2021/12/12 08:41:11;;;;;;;24.50;11.55;;;;;;;0.99;76.44;99002.06;5033517;28;20080;-70
2021/12/12 08:43:43;;;;;;;18.80;10.43;;;;;;;0.54;77.70;98988.22;5033252;28;20049;-70
2021/12/12 08:46:16;;;;;;;29.27;13.93;;;;;;;0.37;78.94;99019.84;5033366;28;20113;-71
2021/12/12 08:48:51;;;;;;;38.25;17.85;;;;;;;0.26;79.09;99003.53;5032927;28;20109;-71
2021/12/12 08:51:29;;;;;;;40.03;18.38;;;;;;;0.02;79.70;98982.84;5031873;28;20112;-71
2021/12/12 08:54:12;;;;;;;29.48;14.07;;;;;;;0.20;81.23;98977.78;5034332;28;20117;-70
2021/12/12 08:56:46;;;;;;;25.88;13.10;;;;;;;0.52;81.63;98966.78;5033569;28;20049;-71
2021/12/12 08:59:21;;;;;;;15.10;7.78;;;;;;;0.50;80.57;98953.06;4995367;28;20128;-69
2021/12/12 09:01:57;;;;;;;14.45;6.88;;;;;;;0.59;80.97;98950.53;5014945;28;20069;-69
2021/12/12 09:04:34;;;;;;;9.98;5.60;;;;;;;0.83;81.41;98945.47;5016072;28;20069;-70
2021/12/12 09:07:11;;;;;;;9.68;4.72;;;;;;;1.27;80.99;98942.06;5016112;28;20267;-70
2021/12/12 09:09:46;;;;;;;30.55;13.90;;;;;;;1.10;79.68;98943.78;5015700;28;20049;-72
2021/12/12 09:12:22;;;;;;;28.83;13.77;;;;;;;1.53;80.44;98948.91;5014807;28;20109;-71
2021/12/12 09:15:09;;;;;;;29.55;13.90;;;;;;;1.34;78.75;98947.19;5016206;28;20053;-71
2021/12/12 09:17:45;;;;;;;18.25;9.38;;;;;;;0.49;79.17;98912.81;5016567;28;20069;-70
2021/12/12 09:20:25;;;;;;;15.63;9.18;;;;;;;-0.01;80.40;98907.50;5016365;28;20289;-71
2021/12/12 09:23:01;;;;;;;6.93;4.70;;;;;;;-0.07;82.22;98902.34;5016582;28;20049;-71
2021/12/12 09:25:38;;;;;;;9.48;5.20;;;;;;;0.18;82.76;98887.91;5016082;28;20105;-71
2021/12/12 09:28:18;;;;;;;11.65;5.32;;;;;;;0.13;82.41;98868.19;5016324;28;20081;-71
2021/12/12 09:30:49;;;;;;;13.40;7.55;;;;;;;0.28;82.70;98883.66;5015173;28;20217;-71
2021/12/12 09:33:24;;;;;;;41.80;15.90;;;;;;;0.06;82.71;98887.84;5016158;28;20112;-72
2021/12/12 09:36:01;;;;;;;43.05;16.67;;;;;;;-0.20;82.94;98880.06;5016121;28;20468;-71
2021/12/12 09:38:38;;;;;;;18.83;10.52;;;;;;;-0.29;84.26;98872.31;5015993;28;20045;-71
2021/12/12 09:41:28;;;;;;;45.13;16.52;;;;;;;-0.50;84.32;98876.47;5014992;28;20125;-71
2021/12/12 09:44:14;;;;;;;53.63;19.08;;;;;;;-0.56;84.89;98876.41;5015526;28;20077;-72
2021/12/12 09:47:28;;;;;;;41.50;15.00;;;;;;;-0.41;85.45;98869.66;5016274;28;20053;-72
2021/12/12 09:53:30;;;;;;;20.08;11.18;;;;;;;-0.66;85.16;98849.00;5015422;28;20065;-71
2021/12/12 09:56:07;;;;;;;17.38;9.98;;;;;;;-0.75;85.68;98838.66;5015334;28;20117;-72
2021/12/12 09:58:49;;;;;;;17.65;10.43;;;;;;;-0.45;87.30;98828.59;5015678;28;20049;-71
2021/12/12 10:01:23;;;;;;;19.58;10.95;;;;;;;-0.14;86.76;98797.91;5015626;28;20054;-70
2021/12/12 10:04:23;;;;;;;18.30;9.30;;;;;;;-0.24;84.92;98812.41;5014967;28;20068;-71
2021/12/12 10:07:02;;;;;;;19.35;10.45;;;;;;;-0.45;85.28;98813.22;5013788;28;20049;-73
2021/12/12 10:09:44;;;;;;;41.30;14.75;;;;;;;-0.53;85.71;98809.72;5015121;28;20050;-72
2021/12/12 10:12:18;;;;;;;27.85;11.73;;;;;;;-0.69;85.81;98797.69;5014428;28;20054;-73
2021/12/12 10:14:52;;;;;;;24.70;11.45;;;;;;;-0.79;86.04;98776.25;5014879;28;20168;-72
2021/12/12 10:17:32;;;;;;;17.20;9.88;;;;;;;-0.73;86.29;98780.56;5015196;28;20040;-71
2021/12/12 10:20:08;;;;;;;37.90;16.17;;;;;;;-0.88;86.35;98756.53;5014941;28;20045;-74
2021/12/12 10:22:53;;;;;;;22.52;12.77;;;;;;;-0.83;86.46;98760.84;5015329;28;20050;-73
2021/12/12 10:25:32;;;;;;;15.77;10.07;;;;;;;-0.82;86.76;98742.03;5014380;28;20986;-73
2021/12/12 10:28:12;;;;;;;27.13;13.02;;;;;;;-0.78;86.99;98741.22;5014210;28;20404;-72
2021/12/12 10:30:44;;;;;;;;;;;;;;;-0.74;87.38;98733.53;5013975;28;20054;-72
2021/12/12 10:33:20;;;;;;;23.40;11.57;;;;;;;-0.54;87.28;98725.06;5014505;28;19971;-72
2021/12/12 10:35:55;;;;;;;25.52;12.32;;;;;;;-0.39;87.64;98724.25;5014111;28;20243;-70
2021/12/12 10:38:35;;;;;;;20.15;11.48;;;;;;;-0.31;86.75;98714.88;5014232;28;20116;-70
2021/12/12 10:41:11;;;;;;;18.10;10.43;;;;;;;-0.58;86.46;98698.53;5014395;28;20613;-72
2021/12/12 10:43:46;;;;;;;18.23;11.18;;;;;;;-0.52;87.17;98688.31;5014796;28;20084;-72
2021/12/12 10:46:23;;;;;;;19.13;10.45;;;;;;;-0.47;86.63;98660.94;5014433;28;20109;-70
2021/12/12 10:49:08;;;;;;;16.60;10.05;;;;;;;-0.35;87.15;98684.91;5013392;28;20049;-71
2021/12/12 10:51:45;;;;;;;17.83;10.18;;;;;;;-0.39;86.86;98657.53;5014635;28;20053;-70
2021/12/12 10:54:21;;;;;;;15.35;9.45;;;;;;;0.03;87.16;98658.44;5014126;28;20057;-72
2021/12/12 10:57:00;;;;;;;15.40;9.23;;;;;;;0.21;86.97;98615.59;5014065;28;20157;-71
2021/12/12 10:59:35;;;;;;;13.70;8.35;;;;;;;0.38;85.57;98646.41;5014465;28;20108;-70
2021/12/12 11:02:08;;;;;;;14.30;8.75;;;;;;;0.27;86.10;98625.00;5014537;28;20101;-72
2021/12/12 11:04:44;;;;;;;17.77;9.88;;;;;;;0.26;85.41;98625.88;5013639;28;20046;-71
2021/12/12 11:07:23;;;;;;;15.73;9.75;;;;;;;0.56;86.33;98621.53;5014501;28;20053;-72
2021/12/12 11:10:05;;;;;;;14.60;9.43;;;;;;;0.73;85.60;98599.22;5013629;28;20080;-72
2021/12/12 11:12:43;;;;;;;15.23;9.05;;;;;;;1.11;84.89;98600.75;5014317;28;20046;-71
2021/12/12 11:15:19;;;;;;;14.93;9.68;;;;;;;1.11;84.15;98610.22;5014273;28;20065;-72
2021/12/12 11:17:57;;;;;;;16.75;10.25;;;;;;;1.41;84.21;98601.47;5014324;28;20328;-72
2021/12/12 11:20:35;;;;;;;15.88;9.90;;;;;;;1.50;83.68;98588.53;5014442;28;20045;-72
2021/12/12 11:23:08;;;;;;;15.57;8.65;;;;;;;1.82;82.79;98575.44;5013862;28;20121;-70
2021/12/12 11:25:42;;;;;;;19.02;9.00;;;;;;;1.89;82.46;98571.06;5013566;28;20050;-72
2021/12/12 11:28:21;;;;;;;15.00;8.75;;;;;;;1.98;81.33;98550.38;4998475;28;20120;-71
2021/12/12 11:30:57;;;;;;;25.17;11.85;;;;;;;1.86;80.55;98558.22;5033288;28;20049;-70
2021/12/12 11:33:35;;;;;;;16.77;8.90;;;;;;;1.56;79.97;98557.59;5033343;28;20068;-70
2021/12/12 11:36:12;;;;;;;12.23;7.70;;;;;;;1.48;80.66;98543.94;5032452;28;20103;-70
2021/12/12 11:38:54;;;;;;;13.27;8.02;;;;;;;1.06;80.60;98505.59;5032573;28;20084;-72
2021/12/12 11:41:34;;;;;;;11.30;7.43;;;;;;;1.19;81.16;98516.66;5032768;28;20080;-71
2021/12/12 11:44:15;;;;;;;10.10;6.65;;;;;;;1.31;81.33;98504.59;5033700;28;20056;-71
2021/12/12 11:46:58;;;;;;;11.40;6.63;;;;;;;1.13;81.02;98480.72;5036474;28;20041;-71
2021/12/12 11:49:38;;;;;;;11.23;7.30;;;;;;;1.07;80.56;98488.44;5034860;28;20053;-71
2021/12/12 11:52:15;;;;;;;12.77;7.45;;;;;;;0.95;81.40;98480.81;5037096;28;20139;-71
2021/12/12 11:54:56;;;;;;;13.95;8.13;;;;;;;0.64;80.60;98470.72;5037351;28;20116;-71
2021/12/12 11:57:31;;;;;;;12.95;8.40;;;;;;;0.25;81.97;98446.94;5037415;28;20049;-70
2021/12/12 12:00:14;;;;;;;24.15;13.18;;;;;;;0.64;83.23;98470.72;5037074;28;20068;-69
2021/12/12 12:02:57;;;;;;;37.25;17.85;;;;;;;1.09;83.55;98463.59;5037331;28;20117;-71
2021/12/12 12:05:38;;;;;;;48.50;24.30;;;;;;;1.00;82.51;98453.34;5036925;28;20064;-70
2021/12/12 12:08:19;;;;;;;48.78;24.20;;;;;;;0.79;82.10;98450.06;5036990;28;20053;-69
2021/12/12 12:11:04;;;;;;;40.03;20.65;;;;;;;0.78;82.48;98448.38;5037103;28;20060;-69
2021/12/12 12:13:51;;;;;;;36.28;16.88;;;;;;;0.88;82.63;98417.47;5036947;28;20103;-70
2021/12/12 12:16:36;;;;;;;38.15;17.23;;;;;;;0.77;82.42;98420.94;5037085;28;20053;-71
2021/12/12 12:19:13;;;;;;;26.00;13.52;;;;;;;0.71;82.33;98420.97;5037049;28;20056;-71
2021/12/12 12:22:03;;;;;;;19.92;10.80;;;;;;;0.73;82.47;98414.13;5037134;28;20053;-71